Weather observations for the past three days for
Augusta, Augusta State Airport
Imperial (Metric)
Date Time (edt) Wind (mph) Vis. (mi.) Weather Sky Cond. Temperature (ºF) Relative Humidity Wind Chill (°F) Heat Index (°F) Pressure Precipitation (in)
Air Dwpt 6 hour altimeter (in) sea level (mb) 1 hr 3 hr 6 hr
Max. Min.
01 07:53 N 5 10.00 Fair CLR 57 52 57 51.1 83% 30.09 1019.0
01 06:53 N 6 10.00 Fair CLR 54 51.1 90% 30.08 1018.5
01 05:53 N 5 10.00 Fair CLR 52 50 93% 30.07 1018.2
01 04:53 N 5 10.00 Fair CLR 53.1 50 89% 30.07 1018.2
01 03:53 N 3 10.00 Fair CLR 53.1 50 89% 30.07 1018.2
01 02:53 N 3 10.00 Fair CLR 54 51.1 90% 30.07 1018.3
01 00:53 Calm 10.00 Fair CLR 55 51.1 87% 30.08 1018.4
31 23:53 Calm 10.00 Fair CLR 57 50 78% 30.07 1018.3
31 22:53 Calm 10.00 Fair CLR 57.9 50 75% 30.09 1018.8
31 21:53 SW 5 10.00 Fair CLR 59 48 67% 30.07 1018.4
31 20:53 S 5 10.00 Fair CLR 61 48.9 65% 30.07 1018.4
31 19:53 S 5 10.00 Fair CLR 64 48.9 75.9 64 58% 30.07 1018.2
31 18:53 Vrbl 5 10.00 Fair CLR 70 50 49% 30.06 1018.0
31 17:53 Calm 10.00 Fair CLR 73.9 46.9 38% 30.06 1017.7
31 16:53 W 3 10.00 Fair CLR 75 48 39% 77 30.06 1017.9
31 15:53 W 6 10.00 Fair CLR 75 48.9 40% 77 30.07 1018.1
31 14:53 N 3 10.00 Fair CLR 75 48.9 40% 77 30.08 1018.6
31 13:53 Calm 10.00 Fair CLR 72 48 73 57 43% 30.1 1019.2
31 12:53 W 7 10.00 Fair CLR 72 48.9 44% 30.11 1019.6
31 11:53 NW 7 10.00 Fair CLR 70 48.9 47% 30.13 1020.1
31 10:53 NW 7 10.00 Fair CLR 66.9 48.9 53% 30.14 1020.6
31 09:53 NW 6 10.00 Fair CLR 64.9 52 63% 30.14 1020.7
31 08:53 NW 6 10.00 Fair CLR 61 53.1 75% 30.13 1020.1
31 07:53 NW 6 10.00 Fair CLR 57 53.1 57 52 87% 30.13 1020.3
31 06:53 NW 5 10.00 Fair CLR 54 51.1 90% 30.12 1020.1
31 05:53 NW 6 10.00 Fair CLR 52 51.1 97% 30.1 1019.3
31 04:53 NW 6 10.00 Fair CLR 53.1 51.1 93% 30.08 1018.5
31 03:53 NW 6 10.00 Fair CLR 53.1 52 96% 30.07 1018.3
31 02:53 NW 6 10.00 Fair CLR 54 53.1 97% 30.06 1018.1
31 01:53 NW 7 10.00 Fair CLR 55 54 66.9 55 96% 30.06 1017.8 0.24
31 00:53 NW 6 10.00 Fair CLR 57 55 93% 30.05 1017.6
30 23:53 W 6 10.00 Fair CLR 57.9 55.9 93% 30.03 1016.9
30 22:53 Calm 10.00 Mostly Cloudy BKN110 59 57.9 96% 30.02 1016.6 0.01 0.24
30 21:53 Calm 10.00 Overcast OVC090 59 57.9 96% 30.02 1016.6 0.23
30 20:53 N 13 10.00 Overcast BKN040 BKN049 OVC060 66.9 57 71% 30.02 1016.4
30 19:53 SW 5 10.00 Overcast SCT070 OVC090 66.9 60.1 71.1 66.9 79% 29.97 1014.9 0.01 0.01
30 18:53 Calm 10.00 Overcast FEW070 OVC100 70 57.9 66% 29.96 1014.6
30 17:53 SW 8 10.00 Partly Cloudy SCT110 70 59 68% 29.96 1014.3
30 16:53 W 6 10.00 Overcast OVC080 70 59 68% 29.96 1014.6
30 15:53 Vrbl 7 10.00 Fair CLR 70 60.1 71% 29.97 1014.9
30 14:53 SW 7 G 17 10.00 Overcast OVC100 70 59 68% 29.99 1015.6
30 13:53 W 9 G 18 10.00 Overcast FEW042 OVC100 70 57.9 73 62.1 66% 30.01 1016.2
30 12:53 Vrbl 6 10.00 Overcast OVC100 70 57 64% 30.02 1016.7
30 11:53 W 3 10.00 Partly Cloudy SCT100 73 55.9 55% 30.03 1016.9
30 10:53 Vrbl 5 10.00 Overcast OVC100 68 55 63% 30.06 1017.7
30 09:53 Vrbl 6 10.00 Partly Cloudy FEW100 SCT110 71.1 55.9 59% 30.07 1018.0
30 08:53 Vrbl 5 10.00 Fair CLR 69.1 55 61% 30.06 1018.0
30 07:53 S 3 10.00 Fair CLR 62.1 54 62.1 55.9 75% 30.07 1018.3
30 06:53 Vrbl 5 10.00 Fair CLR 57.9 53.1 84% 30.07 1018.3
30 05:53 Calm 10.00 Fair CLR 57 53.1 87% 30.08 1018.7
30 04:53 Calm 10.00 Fair CLR 55.9 53.1 90% 30.09 1018.7
30 03:53 S 3 10.00 Fair CLR 55.9 54 93% 30.09 1018.9
30 02:53 Vrbl 3 10.00 Fair CLR 57 54 90% 30.09 1018.9
30 01:53 Calm 10.00 Fair CLR 57 54 66 57 90% 30.11 1019.4
30 00:53 Vrbl 3 10.00 Fair CLR 57.9 54 87% 30.12 1019.8
29 23:53 Calm 10.00 Fair CLR 59 53.1 81% 30.12 1019.8
29 22:53 Calm 10.00 Fair CLR 60.1 52 75% 30.12 1020.0
29 21:53 Calm 10.00 Fair CLR 62.1 51.1 67% 30.12 1019.9
29 20:53 Vrbl 5 10.00 Partly Cloudy SCT065 63 51.1 65% 30.13 1020.4
29 19:53 Vrbl 5 10.00 Fair CLR 66 50 77 66 56% 30.12 1019.8
29 18:53 W 5 10.00 Fair CLR 72 48.9 44% 30.11 1019.6
29 17:53 NW 7 10.00 Fair CLR 75 48 39% 77 30.11 1019.7
29 16:53 W 10 10.00 Fair CLR 75.9 46 35% 78 30.12 1019.8
29 15:53 W 9 10.00 Fair CLR 75.9 46.9 36% 78 30.12 1020.1
29 14:53 SW 10 G 16 10.00 Fair CLR 75.9 46.9 36% 78 30.14 1020.5
29 13:53 NW 10 G 21 10.00 Fair CLR 75 46 75 62.1 36% 77 30.15 1020.9
29 12:53 Calm 10.00 Fair CLR 72 46.9 41% 30.16 1021.2
29 11:53 W 8 10.00 Fair CLR 71.1 48 44% 30.17 1021.6
29 10:53 N 10 10.00 Fair CLR 70 46.9 44% 30.19 1022.1
29 09:53 N 10 10.00 Fair CLR 68 46.9 47% 30.19 1022.2
29 08:53 W 5 10.00 Fair CLR 64.9 53.1 66% 30.18 1022.1
Date Time (edt) Wind (mph) Vis. (mi.) Weather Sky Cond. Air Dwpt Max. Min. Relative Humidity Wind Chill (°F) Heat Index (°F) altimeter (in) sea level (mb) 1 hr 3 hr 6 hr
6 hour
Temperature (ºF) Pressure Precipitation (in)